createdAt,value
2019-03-27T00:01:54.646Z,100422.23
2019-03-27T00:04:24.452Z,100420.78
2019-03-27T00:06:54.222Z,100419.67
2019-03-27T00:09:23.969Z,100419.98
2019-03-27T00:11:55.603Z,100420.04
2019-03-27T00:14:26.548Z,100423.27
2019-03-27T00:16:58.157Z,100429.43
2019-03-27T00:19:28.285Z,100415.88
2019-03-27T00:21:59.754Z,100417.20
2019-03-27T00:24:30.780Z,100411.57
2019-03-27T00:27:01.185Z,100418.15
2019-03-27T00:29:31.280Z,100414.91
2019-03-27T00:32:01.436Z,100417.77
2019-03-27T00:34:31.490Z,100422.63
2019-03-27T00:37:01.521Z,100417.25
2019-03-27T00:39:31.595Z,100416.05
2019-03-27T00:42:01.363Z,100413.45
2019-03-27T00:44:31.088Z,100416.19
2019-03-27T00:47:02.873Z,100412.33
2019-03-27T00:49:32.982Z,100420.23
2019-03-27T00:52:06.715Z,100427.00
2019-03-27T00:54:37.854Z,100419.16
2019-03-27T00:57:07.607Z,100418.84
2019-03-27T00:59:38.753Z,100425.91
2019-03-27T01:02:08.785Z,100431.69
2019-03-27T01:04:38.874Z,100433.09
2019-03-27T01:07:08.636Z,100420.98
2019-03-27T01:09:39.137Z,100420.67
2019-03-27T01:12:09.248Z,100419.35
2019-03-27T01:14:40.077Z,100416.99
2019-03-27T01:17:12.923Z,100418.82
2019-03-27T01:19:43.507Z,100420.85
2019-03-27T01:22:14.297Z,100417.86
2019-03-27T01:24:47.253Z,100417.98
2019-03-27T01:27:18.206Z,100417.53
2019-03-27T01:29:48.598Z,100421.07
2019-03-27T01:32:20.958Z,100416.88
2019-03-27T01:34:57.298Z,100422.72
2019-03-27T01:37:27.775Z,100424.41
2019-03-27T01:39:57.905Z,100428.11
2019-03-27T01:42:28.874Z,100422.06
2019-03-27T01:45:00.677Z,100427.32
2019-03-27T01:47:32.398Z,100421.29
2019-03-27T01:50:12.156Z,100420.95
2019-03-27T01:52:43.223Z,100415.74
2019-03-27T01:55:14.577Z,100426.74
2019-03-27T01:57:44.688Z,100428.14
2019-03-27T02:00:15.736Z,100424.36
2019-03-27T02:02:46.058Z,100418.97
2019-03-27T02:05:16.228Z,100419.38
2019-03-27T02:07:46.484Z,100422.98
2019-03-27T02:10:16.913Z,100426.70
2019-03-27T02:12:51.504Z,100424.29
2019-03-27T02:15:22.548Z,100424.06
2019-03-27T02:17:52.519Z,100420.16
2019-03-27T02:20:24.390Z,100425.69
2019-03-27T02:22:56.370Z,100419.58
2019-03-27T02:25:26.793Z,100417.33
2019-03-27T02:28:01.455Z,100419.95
2019-03-27T02:30:38.901Z,100426.38
2019-03-27T02:33:08.978Z,100426.45
2019-03-27T02:35:39.542Z,100429.52
2019-03-27T02:38:12.341Z,100431.30
2019-03-27T02:40:42.887Z,100434.34
2019-03-27T02:43:14.759Z,100434.16
2019-03-27T02:45:50.149Z,100437.19
2019-03-27T02:48:19.737Z,100441.51
2019-03-27T02:50:50.695Z,100441.95
2019-03-27T02:53:20.455Z,100439.84
2019-03-27T02:55:50.507Z,100445.09
2019-03-27T02:58:20.641Z,100443.61
2019-03-27T03:00:50.392Z,100444.73
2019-03-27T03:03:22.443Z,100448.31
2019-03-27T03:05:52.767Z,100446.67
2019-03-27T03:08:23.669Z,100448.08
2019-03-27T03:10:56.669Z,100447.00
2019-03-27T03:13:31.174Z,100447.09
2019-03-27T03:16:02.247Z,100452.78
2019-03-27T03:18:35.583Z,100454.33
2019-03-27T03:21:06.099Z,100447.84
2019-03-27T03:23:36.574Z,100448.28
2019-03-27T03:26:06.281Z,100448.42
2019-03-27T03:28:36.640Z,100457.59
2019-03-27T03:31:09.409Z,100455.34
2019-03-27T03:33:41.062Z,100458.05
2019-03-27T03:36:11.098Z,100453.33
2019-03-27T03:38:41.084Z,100452.58
2019-03-27T03:41:11.446Z,100453.11
2019-03-27T03:43:45.650Z,100453.02
2019-03-27T03:46:15.373Z,100451.93
2019-03-27T03:48:46.381Z,100459.36
2019-03-27T03:51:18.714Z,100461.20
2019-03-27T03:53:50.130Z,100463.47
2019-03-27T03:56:21.697Z,100465.97
2019-03-27T03:58:53.286Z,100460.30
2019-03-27T04:01:27.304Z,100460.84
2019-03-27T04:04:01.334Z,100468.70
2019-03-27T04:06:31.063Z,100463.08
2019-03-27T04:09:00.844Z,100474.58
2019-03-27T04:11:30.940Z,100473.34
2019-03-27T04:14:01.027Z,100476.02
2019-03-27T04:16:31.868Z,100483.50
2019-03-27T04:19:03.399Z,100483.20
2019-03-27T04:21:34.206Z,100484.99
2019-03-27T04:24:06.295Z,100496.33
2019-03-27T04:26:39.148Z,100491.14
2019-03-27T04:29:10.706Z,100488.20
2019-03-27T04:31:40.795Z,100489.53
2019-03-27T04:34:10.587Z,100487.77
2019-03-27T04:36:40.561Z,100490.42
2019-03-27T04:39:10.756Z,100492.62
2019-03-27T04:41:42.824Z,100503.49
2019-03-27T04:44:15.442Z,100507.30
2019-03-27T04:46:46.767Z,100504.22
2019-03-27T04:49:18.405Z,100505.91
2019-03-27T04:51:48.141Z,100507.74
2019-03-27T04:54:18.172Z,100510.43
2019-03-27T04:56:48.201Z,100510.02
2019-03-27T04:59:21.056Z,100501.83
2019-03-27T05:01:52.919Z,100500.97
2019-03-27T05:04:23.665Z,100494.00
2019-03-27T05:06:53.728Z,100497.98
2019-03-27T05:09:23.507Z,100501.45
2019-03-27T05:11:53.520Z,100494.97
2019-03-27T05:14:24.639Z,100495.66
2019-03-27T05:16:56.415Z,100499.59
2019-03-27T05:19:29.223Z,100497.90
2019-03-27T05:21:59.492Z,100503.49
2019-03-27T05:24:30.644Z,100501.25
2019-03-27T05:27:03.185Z,100505.11
2019-03-27T05:29:33.933Z,100507.28
2019-03-27T05:32:04.830Z,100509.51
2019-03-27T05:34:35.528Z,100512.51
2019-03-27T05:37:15.395Z,100512.06
2019-03-27T05:39:45.168Z,100519.95
2019-03-27T05:42:14.941Z,100527.67
2019-03-27T05:44:45.059Z,100533.46
2019-03-27T05:47:15.010Z,100535.16
2019-03-27T05:49:45.619Z,100542.50
2019-03-27T05:52:15.332Z,100543.78
2019-03-27T05:54:46.343Z,100549.82
2019-03-27T05:57:16.092Z,100557.69
2019-03-27T05:59:47.595Z,100561.61
2019-03-27T06:02:18.588Z,100563.73
2019-03-27T06:04:48.473Z,100563.31
2019-03-27T06:07:19.266Z,100558.95
2019-03-27T06:09:49.060Z,100552.94
2019-03-27T06:12:20.995Z,100548.99
2019-03-27T06:14:50.705Z,100560.77
2019-03-27T06:17:21.626Z,100565.48
2019-03-27T06:19:51.417Z,100561.89
2019-03-27T06:22:22.024Z,100556.56
2019-03-27T06:24:53.975Z,100563.57
2019-03-27T06:27:24.207Z,100570.41
2019-03-27T06:29:54.405Z,100567.80
2019-03-27T06:32:24.589Z,100563.33
2019-03-27T06:34:55.565Z,100565.05
2019-03-27T06:37:25.316Z,100568.45
2019-03-27T06:39:56.051Z,100573.53
2019-03-27T06:42:26.135Z,100570.89
2019-03-27T06:44:57.310Z,100576.02
2019-03-27T06:47:27.264Z,100575.16
2019-03-27T06:49:57.149Z,100582.50
2019-03-27T06:52:27.524Z,100582.95
2019-03-27T06:54:59.941Z,100590.36
2019-03-27T06:57:30.064Z,100583.63
2019-03-27T07:00:00.098Z,100590.42
2019-03-27T07:02:30.614Z,100594.31
2019-03-27T07:05:01.418Z,100595.89
2019-03-27T07:07:31.173Z,100603.64
2019-03-27T07:10:03.170Z,100602.94
2019-03-27T07:12:34.590Z,100599.25
2019-03-27T07:15:08.448Z,100599.98
2019-03-27T07:17:38.718Z,100587.64
2019-03-27T07:20:10.396Z,100594.06
2019-03-27T07:22:40.810Z,100598.19
2019-03-27T07:25:12.653Z,100604.19
2019-03-27T07:27:42.793Z,100609.70
2019-03-27T07:30:12.957Z,100605.94
2019-03-27T07:32:43.110Z,100606.08
2019-03-27T07:35:13.161Z,100613.37
2019-03-27T07:37:43.447Z,100628.33
2019-03-27T07:40:13.453Z,100625.83
2019-03-27T07:42:47.450Z,100622.45
2019-03-27T07:45:17.445Z,100629.17
2019-03-27T07:47:48.199Z,100636.20
2019-03-27T07:50:19.991Z,100647.01
2019-03-27T07:52:49.780Z,100644.40
2019-03-27T07:55:20.095Z,100638.84
2019-03-27T07:57:49.836Z,100640.73
2019-03-27T08:00:20.115Z,100637.20
2019-03-27T08:02:50.235Z,100644.31
2019-03-27T08:05:20.036Z,100644.41
2019-03-27T08:07:49.814Z,100641.94
2019-03-27T08:10:19.557Z,100651.81
2019-03-27T08:12:50.144Z,100658.53
2019-03-27T08:15:19.885Z,100644.59
2019-03-27T08:17:50.390Z,100647.58
2019-03-27T08:20:21.930Z,100647.29
2019-03-27T08:22:51.712Z,100645.77
2019-03-27T08:25:22.259Z,100627.16
2019-03-27T08:27:52.609Z,100633.81
2019-03-27T08:30:22.466Z,100628.12
2019-03-27T08:32:53.054Z,100625.50
2019-03-27T08:35:22.800Z,100632.28
2019-03-27T08:37:52.566Z,100628.39
2019-03-27T08:40:23.394Z,100623.83
2019-03-27T08:42:54.399Z,100621.53
2019-03-27T08:45:24.408Z,100628.06
2019-03-27T08:47:54.160Z,100621.33
2019-03-27T08:50:23.915Z,100618.47
2019-03-27T08:52:53.675Z,100624.55
2019-03-27T08:55:24.561Z,100625.50
2019-03-27T08:57:56.219Z,100625.25
2019-03-27T09:00:52.322Z,100631.23
2019-03-27T09:03:24.164Z,100625.39
2019-03-27T09:05:55.316Z,100628.80
2019-03-27T09:08:28.501Z,100625.98
2019-03-27T09:11:00.730Z,100629.75
2019-03-27T09:13:37.545Z,100628.41
2019-03-27T09:16:07.814Z,100628.64
2019-03-27T09:18:39.937Z,100633.77
2019-03-27T09:21:11.357Z,100634.28
2019-03-27T09:23:45.448Z,100631.70
2019-03-27T09:26:14.484Z,100635.16
2019-03-27T09:28:44.538Z,100636.01
2019-03-27T09:31:15.969Z,100634.50
2019-03-27T09:33:47.210Z,100638.13
2019-03-27T09:36:17.793Z,100636.69
2019-03-27T09:38:50.345Z,100636.01
2019-03-27T09:41:21.654Z,100638.14
2019-03-27T09:43:52.502Z,100637.80
2019-03-27T09:46:22.525Z,100635.47
2019-03-27T09:48:52.400Z,100637.33
2019-03-27T09:51:22.220Z,100633.53
2019-03-27T09:53:53.369Z,100638.92
2019-03-27T09:56:24.068Z,100641.39
2019-03-27T09:58:54.935Z,100634.78
2019-03-27T10:01:25.726Z,100630.31
2019-03-27T10:03:55.516Z,100640.30
2019-03-27T10:06:26.657Z,100643.38
2019-03-27T10:08:59.012Z,100636.97
2019-03-27T10:11:29.717Z,100637.79
2019-03-27T10:13:59.477Z,100636.23
2019-03-27T10:16:29.588Z,100632.42
2019-03-27T10:18:59.350Z,100630.02
2019-03-27T10:21:29.479Z,100635.64
2019-03-27T10:24:02.504Z,100634.40
2019-03-27T10:26:36.986Z,100638.19
2019-03-27T10:29:09.178Z,100635.47
2019-03-27T10:31:39.875Z,100644.81
2019-03-27T10:34:12.202Z,100634.79
2019-03-27T10:36:42.635Z,100633.61
2019-03-27T10:39:14.708Z,100626.98
2019-03-27T10:41:45.818Z,100631.41
2019-03-27T10:44:17.602Z,100626.70
2019-03-27T10:46:48.007Z,100623.77
2019-03-27T10:49:17.766Z,100625.86
2019-03-27T10:51:47.524Z,100623.77
2019-03-27T10:54:18.646Z,100624.86
2019-03-27T10:56:48.412Z,100629.85
2019-03-27T10:59:18.144Z,100628.20
2019-03-27T11:01:47.951Z,100622.21
2019-03-27T11:04:17.683Z,100628.53
2019-03-27T11:06:47.729Z,100626.87
2019-03-27T11:09:17.474Z,100632.59
2019-03-27T11:11:47.613Z,100629.34
2019-03-27T11:14:18.163Z,100635.11
2019-03-27T11:16:48.309Z,100633.27
2019-03-27T11:19:19.198Z,100630.54
2019-03-27T11:21:50.103Z,100630.25
2019-03-27T11:24:20.213Z,100630.12
2019-03-27T11:26:51.846Z,100625.86
2019-03-27T11:29:22.795Z,100630.25
2019-03-27T11:31:52.598Z,100624.44
2019-03-27T11:34:23.236Z,100629.28
2019-03-27T11:36:53.175Z,100624.58
2019-03-27T11:39:25.656Z,100621.45
2019-03-27T11:42:00.720Z,100626.64
2019-03-27T11:44:44.520Z,100618.99
2019-03-27T11:47:14.442Z,100612.81
2019-03-27T11:49:44.828Z,100620.54
2019-03-27T11:52:15.005Z,100631.83
2019-03-27T11:54:47.117Z,100631.70
2019-03-27T11:57:18.132Z,100624.79
2019-03-27T11:59:53.803Z,100621.00
2019-03-27T12:02:19.931Z,100626.39
2019-03-27T12:04:49.752Z,100625.91
2019-03-27T12:07:19.821Z,100629.69
2019-03-27T12:09:53.483Z,100625.25
2019-03-27T12:12:27.463Z,100618.80
2019-03-27T12:15:00.432Z,100620.88
2019-03-27T12:17:32.001Z,100622.28
2019-03-27T12:20:01.865Z,100619.92
2019-03-27T12:22:31.989Z,100613.39
2019-03-27T12:25:02.421Z,100618.34
2019-03-27T12:27:39.958Z,100612.05
2019-03-27T12:30:12.688Z,100616.99
2019-03-27T12:32:42.833Z,100610.67
2019-03-27T12:35:16.073Z,100616.69
2019-03-27T12:37:48.287Z,100619.14
2019-03-27T12:40:20.078Z,100610.86
2019-03-27T12:42:54.328Z,100610.27
2019-03-27T12:45:27.369Z,100608.48
2019-03-27T12:48:00.949Z,100606.30
2019-03-27T12:50:32.051Z,100606.22
2019-03-27T12:53:03.677Z,100607.36
2019-03-27T12:55:33.744Z,100612.70
2019-03-27T12:58:06.765Z,100605.00
2019-03-27T13:00:37.302Z,100604.75
2019-03-27T13:03:07.572Z,100609.80
2019-03-27T13:05:38.263Z,100605.83
2019-03-27T13:08:09.987Z,100609.62
2019-03-27T13:10:42.360Z,100600.55
2019-03-27T13:13:12.206Z,100598.67
2019-03-27T13:15:42.029Z,100605.54
2019-03-27T13:18:12.480Z,100592.30
2019-03-27T13:20:42.376Z,100594.02
2019-03-27T13:23:12.687Z,100606.04
2019-03-27T13:25:47.490Z,100601.16
2019-03-27T13:28:17.259Z,100592.78
2019-03-27T13:30:48.887Z,100594.45
2019-03-27T13:33:19.967Z,100595.55
2019-03-27T13:35:51.178Z,100585.27
2019-03-27T13:38:23.195Z,100582.30
2019-03-27T13:40:53.433Z,100581.23
2019-03-27T13:43:25.846Z,100588.03
2019-03-27T13:45:58.592Z,100582.14
2019-03-27T13:48:33.101Z,100580.11
2019-03-27T13:51:05.369Z,100583.23
2019-03-27T13:53:42.101Z,100573.53
2019-03-27T13:56:16.636Z,100575.72
2019-03-27T13:58:46.518Z,100582.73
2019-03-27T14:01:22.073Z,100580.81
2019-03-27T14:03:56.940Z,100574.28
2019-03-27T14:06:28.307Z,100565.37
2019-03-27T14:09:00.962Z,100580.93
2019-03-27T14:11:31.741Z,100573.78
2019-03-27T14:14:11.187Z,100576.02
2019-03-27T14:16:40.507Z,100561.56
2019-03-27T14:19:18.071Z,100561.11
2019-03-27T14:21:54.875Z,100564.00
2019-03-27T14:24:28.527Z,100563.75
2019-03-27T14:26:59.290Z,100559.61
2019-03-27T14:29:32.351Z,100557.20
2019-03-27T14:32:03.918Z,100551.67
2019-03-27T14:34:35.543Z,100547.11
2019-03-27T14:37:06.685Z,100549.01
2019-03-27T14:39:40.086Z,100556.88
2019-03-27T14:42:15.986Z,100553.66
2019-03-27T14:44:46.047Z,100544.17
2019-03-27T14:47:15.934Z,100545.33
2019-03-27T14:49:47.484Z,100539.23
2019-03-27T14:52:18.483Z,100539.16
2019-03-27T14:54:50.292Z,100542.09
2019-03-27T14:57:25.664Z,100542.06
2019-03-27T15:00:04.013Z,100543.70
2019-03-27T15:02:35.661Z,100543.72
2019-03-27T15:05:08.067Z,100538.97
2019-03-27T15:07:37.842Z,100546.73
2019-03-27T15:10:09.704Z,100544.91
2019-03-27T15:12:39.771Z,100537.34
2019-03-27T15:15:11.224Z,100535.51
2019-03-27T15:17:43.546Z,100543.14
2019-03-27T15:20:13.638Z,100538.78
2019-03-27T15:22:44.976Z,100545.17
2019-03-27T15:25:23.547Z,100540.01
2019-03-27T15:27:53.684Z,100541.73
2019-03-27T15:30:25.517Z,100536.80
2019-03-27T15:32:55.252Z,100531.25
2019-03-27T15:35:27.867Z,100533.06
2019-03-27T15:37:58.464Z,100534.12
2019-03-27T15:40:41.026Z,100532.24
2019-03-27T15:43:10.771Z,100532.79
2019-03-27T15:45:42.339Z,100535.45
2019-03-27T15:48:12.378Z,100534.59
2019-03-27T15:50:55.297Z,100531.40
2019-03-27T15:53:13.633Z,100531.87
2019-03-27T15:55:44.168Z,100533.91
2019-03-27T15:58:14.176Z,100531.18
2019-03-27T16:00:43.997Z,100536.86
2019-03-27T16:03:24.340Z,100537.38
2019-03-27T16:05:55.967Z,100538.00
2019-03-27T16:08:25.684Z,100528.16
2019-03-27T16:10:55.441Z,100535.08
2019-03-27T16:13:25.183Z,100532.69
2019-03-27T16:15:54.929Z,100541.14
2019-03-27T16:18:24.649Z,100534.19
2019-03-27T16:20:55.048Z,100541.25
2019-03-27T16:23:26.111Z,100538.47
2019-03-27T16:25:55.871Z,100530.39
2019-03-27T16:28:25.938Z,100540.97
2019-03-27T16:30:57.023Z,100538.98
2019-03-27T16:33:26.893Z,100541.72
2019-03-27T16:35:58.633Z,100543.95
2019-03-27T16:38:29.512Z,100548.72
2019-03-27T16:41:01.636Z,100547.34
2019-03-27T16:43:31.607Z,100539.83
2019-03-27T16:46:03.089Z,100545.48
2019-03-27T16:48:33.779Z,100547.05
2019-03-27T16:51:04.299Z,100542.91
2019-03-27T16:53:34.150Z,100540.22
2019-03-27T16:56:04.008Z,100547.34
2019-03-27T16:58:36.503Z,100547.62
2019-03-27T17:01:07.852Z,100555.33
2019-03-27T17:03:38.683Z,100548.22
2019-03-27T17:06:08.607Z,100554.08
2019-03-27T17:08:38.835Z,100552.59
2019-03-27T17:11:09.024Z,100551.88
2019-03-27T17:13:39.751Z,100555.06
2019-03-27T17:16:12.937Z,100549.67
2019-03-27T17:18:43.107Z,100560.09
2019-03-27T17:21:13.584Z,100556.11
2019-03-27T17:23:43.348Z,100559.14
2019-03-27T17:26:13.096Z,100559.83
2019-03-27T17:28:43.719Z,100567.86
2019-03-27T17:31:13.840Z,100563.81
2019-03-27T17:33:44.995Z,100569.45
2019-03-27T17:36:15.978Z,100580.73
2019-03-27T17:38:48.192Z,100581.75
2019-03-27T17:41:19.908Z,100580.13
2019-03-27T17:43:50.308Z,100577.47
2019-03-27T17:46:23.448Z,100592.68
2019-03-27T17:48:55.578Z,100587.44
2019-03-27T17:51:29.371Z,100589.13
2019-03-27T17:53:59.809Z,100584.61
2019-03-27T17:56:29.748Z,100593.89
2019-03-27T17:58:59.507Z,100596.73
2019-03-27T18:01:29.514Z,100596.94
2019-03-27T18:04:02.828Z,100595.22
2019-03-27T18:06:33.459Z,100602.50
2019-03-27T18:09:04.114Z,100605.83
2019-03-27T18:11:36.342Z,100607.36
2019-03-27T18:14:07.156Z,100610.70
2019-03-27T18:16:42.042Z,100612.89
2019-03-27T18:19:13.279Z,100615.15
2019-03-27T18:21:43.773Z,100615.19
2019-03-27T18:24:13.863Z,100613.00
2019-03-27T18:26:49.162Z,100614.75
2019-03-27T18:29:23.372Z,100619.42
2019-03-27T18:31:55.089Z,100622.00
2019-03-27T18:34:25.085Z,100619.16
2019-03-27T18:36:55.953Z,100622.58
2019-03-27T18:39:25.706Z,100635.27
2019-03-27T18:41:56.069Z,100634.80
2019-03-27T18:44:25.838Z,100633.64
2019-03-27T18:46:58.745Z,100631.00
2019-03-27T18:49:30.755Z,100638.68
2019-03-27T18:52:04.529Z,100645.62
2019-03-27T18:54:34.659Z,100642.48
2019-03-27T18:57:09.466Z,100650.55
2019-03-27T18:59:39.536Z,100652.94
2019-03-27T19:02:14.334Z,100650.03
2019-03-27T19:04:45.132Z,100651.07
2019-03-27T19:07:15.238Z,100652.94
2019-03-27T19:09:53.764Z,100653.92
2019-03-27T19:12:27.027Z,100661.55
2019-03-27T19:14:57.737Z,100659.89
2019-03-27T19:17:35.024Z,100664.86
2019-03-27T19:20:05.409Z,100659.22
2019-03-27T19:22:37.077Z,100662.85
2019-03-27T19:25:11.070Z,100668.84
2019-03-27T19:27:41.094Z,100663.04
2019-03-27T19:30:11.812Z,100665.01
2019-03-27T19:32:42.486Z,100653.05
2019-03-27T19:35:13.375Z,100651.72
2019-03-27T19:37:43.490Z,100654.60
2019-03-27T19:40:13.887Z,100655.69
2019-03-27T19:42:50.291Z,100653.73
2019-03-27T19:45:20.029Z,100654.66
2019-03-27T19:47:52.064Z,100663.01
2019-03-27T19:50:22.689Z,100664.48
2019-03-27T19:52:53.478Z,100667.88
2019-03-27T19:55:23.244Z,100668.66
2019-03-27T19:57:52.977Z,100673.71
2019-03-27T20:00:25.268Z,100671.34
2019-03-27T20:02:54.995Z,100675.30
2019-03-27T20:05:24.747Z,100678.66
2019-03-27T20:07:54.476Z,100679.91
2019-03-27T20:10:24.212Z,100682.69
2019-03-27T20:12:53.994Z,100682.70
2019-03-27T20:15:23.732Z,100686.49
2019-03-27T20:17:54.336Z,100688.47
2019-03-27T20:20:24.068Z,100689.15
2019-03-27T20:22:55.001Z,100695.59
2019-03-27T20:25:25.532Z,100693.00
2019-03-27T20:28:14.249Z,100702.81
2019-03-27T20:30:44.305Z,100701.13
2019-03-27T20:33:16.506Z,100704.99
2019-03-27T20:35:46.464Z,100696.31
2019-03-27T20:38:18.023Z,100699.59
2019-03-27T20:40:48.324Z,100696.19
2019-03-27T20:43:18.069Z,100697.46
2019-03-27T20:45:47.917Z,100699.14
2019-03-27T20:48:18.067Z,100701.69
2019-03-27T20:50:47.920Z,100699.59
2019-03-27T20:53:28.790Z,100693.47
2019-03-27T20:55:58.868Z,100700.73
2019-03-27T20:58:28.646Z,100705.95
2019-03-27T21:01:00.048Z,100703.16
2019-03-27T21:03:29.861Z,100702.40
2019-03-27T21:06:00.876Z,100705.09
2019-03-27T21:08:32.853Z,100707.52
2019-03-27T21:11:04.059Z,100697.98
2019-03-27T21:13:34.694Z,100703.78
2019-03-27T21:16:04.815Z,100695.97
2019-03-27T21:18:35.048Z,100698.15
2019-03-27T21:21:05.306Z,100698.39
2019-03-27T21:23:35.907Z,100695.75
2019-03-27T21:26:09.687Z,100695.14
2019-03-27T21:28:39.519Z,100699.91
2019-03-27T21:31:11.174Z,100699.17
2019-03-27T21:33:44.073Z,100697.42
2019-03-27T21:36:15.390Z,100702.80
2019-03-27T21:38:52.134Z,100703.41
2019-03-27T21:41:22.569Z,100707.69
2019-03-27T21:43:54.182Z,100704.79
2019-03-27T21:46:26.793Z,100708.09
2019-03-27T21:48:57.007Z,100707.61
2019-03-27T21:51:27.099Z,100708.47
2019-03-27T21:53:57.307Z,100709.38
2019-03-27T21:56:32.926Z,100709.64
2019-03-27T21:59:05.367Z,100710.98
2019-03-27T22:01:36.862Z,100706.00
2019-03-27T22:04:08.824Z,100715.80
2019-03-27T22:06:43.725Z,100710.84
2019-03-27T22:09:17.641Z,100717.67
2019-03-27T22:11:47.787Z,100719.59
2019-03-27T22:14:17.734Z,100716.74
2019-03-27T22:16:48.430Z,100717.83
2019-03-27T22:19:22.272Z,100719.44
2019-03-27T22:21:52.528Z,100729.44
2019-03-27T22:24:23.164Z,100732.11
2019-03-27T22:26:56.465Z,100729.63
2019-03-27T22:29:26.215Z,100734.70
2019-03-27T22:31:56.850Z,100743.16
2019-03-27T22:34:26.775Z,100742.66
2019-03-27T22:36:58.123Z,100745.77
2019-03-27T22:39:27.880Z,100750.61
2019-03-27T22:42:08.684Z,100754.22
2019-03-27T22:44:38.449Z,100749.37
2019-03-27T22:47:08.189Z,100758.30
2019-03-27T22:49:38.204Z,100756.28
2019-03-27T22:52:08.333Z,100758.49
2019-03-27T22:54:38.082Z,100761.53
2019-03-27T22:57:07.838Z,100761.98
2019-03-27T22:59:37.604Z,100761.98
2019-03-27T23:02:12.018Z,100763.13
2019-03-27T23:04:46.876Z,100761.14
2019-03-27T23:07:17.745Z,100760.30
2019-03-27T23:09:48.250Z,100757.59
2019-03-27T23:12:18.143Z,100763.30
2019-03-27T23:14:49.821Z,100762.04
2019-03-27T23:17:22.284Z,100762.69
2019-03-27T23:19:52.562Z,100766.06
2019-03-27T23:22:23.038Z,100761.34
2019-03-27T23:24:53.930Z,100767.68
2019-03-27T23:27:30.835Z,100758.34
2019-03-27T23:30:01.420Z,100759.36
2019-03-27T23:32:32.353Z,100758.24
2019-03-27T23:35:02.894Z,100756.57
2019-03-27T23:37:33.475Z,100766.65
2019-03-27T23:40:05.919Z,100768.48
2019-03-27T23:42:37.440Z,100766.89
2019-03-27T23:45:08.848Z,100762.16
2019-03-27T23:47:39.250Z,100760.93
2019-03-27T23:50:09.185Z,100756.50
2019-03-27T23:52:39.585Z,100764.39
2019-03-27T23:55:09.769Z,100759.22
2019-03-27T23:57:39.485Z,100756.05
